createdAt,value
2018-12-09T00:00:52.124Z,12.90
2018-12-09T00:03:22.004Z,12.99
2018-12-09T00:05:52.397Z,13.08
2018-12-09T00:08:21.901Z,13.01
2018-12-09T00:10:51.276Z,12.87
2018-12-09T00:13:19.852Z,12.81
2018-12-09T00:15:49.738Z,12.62
2018-12-09T00:18:18.506Z,12.38
2018-12-09T00:20:55.507Z,12.40
2018-12-09T00:23:25.589Z,12.41
2018-12-09T00:25:55.242Z,12.33
2018-12-09T00:28:23.781Z,12.28
2018-12-09T00:30:53.035Z,12.37
2018-12-09T00:33:27.848Z,12.24
2018-12-09T00:36:01.778Z,12.28
2018-12-09T00:38:31.218Z,12.24
2018-12-09T00:41:00.831Z,12.22
2018-12-09T00:43:29.540Z,12.10
2018-12-09T00:46:00.025Z,12.23
2018-12-09T00:48:29.327Z,12.30
2018-12-09T00:51:05.440Z,12.20
2018-12-09T00:53:35.376Z,12.23
2018-12-09T00:56:03.696Z,12.17
2018-12-09T00:58:45.750Z,12.14
2018-12-09T01:01:15.320Z,12.03
2018-12-09T01:03:44.871Z,12.08
2018-12-09T01:06:14.529Z,12.15
2018-12-09T01:08:44.685Z,12.05
2018-12-09T01:11:15.094Z,12.11
2018-12-09T01:13:44.316Z,12.06
2018-12-09T01:16:14.337Z,11.94
2018-12-09T01:18:43.402Z,11.80
2018-12-09T01:21:12.014Z,11.79
2018-12-09T01:23:41.176Z,11.80
2018-12-09T01:26:10.417Z,11.81
2018-12-09T01:28:39.587Z,11.88
2018-12-09T01:31:08.769Z,11.96
2018-12-09T01:33:37.620Z,11.92
2018-12-09T01:36:06.678Z,11.96
2018-12-09T01:38:36.072Z,11.97
2018-12-09T01:41:05.213Z,11.86
2018-12-09T01:43:34.768Z,11.78
2018-12-09T01:46:04.819Z,11.78
2018-12-09T01:48:33.318Z,11.77
2018-12-09T01:51:01.968Z,11.73
2018-12-09T01:54:38.007Z,11.73
2018-12-09T01:57:07.034Z,11.82
2018-12-09T01:59:39.723Z,11.82
2018-12-09T02:02:09.200Z,11.73
2018-12-09T02:04:38.800Z,11.71
2018-12-09T02:07:12.086Z,11.72
2018-12-09T02:09:41.081Z,11.76
2018-12-09T02:12:10.380Z,11.84
2018-12-09T02:14:38.945Z,11.69
2018-12-09T02:17:07.785Z,11.46
2018-12-09T02:19:37.081Z,11.30
2018-12-09T02:22:06.162Z,11.28
2018-12-09T02:24:34.965Z,11.32
2018-12-09T02:27:04.046Z,11.32
2018-12-09T02:29:32.408Z,11.29
2018-12-09T02:32:02.774Z,11.11
2018-12-09T02:34:31.811Z,11.15
2018-12-09T02:37:00.466Z,11.06
2018-12-09T02:39:28.883Z,10.87
2018-12-09T02:41:59.612Z,10.62
2018-12-09T02:44:28.251Z,10.36
2018-12-09T02:46:57.544Z,10.27
2018-12-09T02:49:27.741Z,10.14
2018-12-09T02:51:56.731Z,10.07
2018-12-09T02:54:25.659Z,9.56
2018-12-09T02:56:55.394Z,9.41
2018-12-09T02:59:24.932Z,9.59
2018-12-09T03:01:53.804Z,9.74
2018-12-09T03:04:22.562Z,9.88
2018-12-09T03:06:51.484Z,10.04
2018-12-09T03:09:20.053Z,10.22
2018-12-09T03:11:48.935Z,10.28
2018-12-09T03:14:17.843Z,10.39
2018-12-09T03:16:47.704Z,10.39
2018-12-09T03:19:17.065Z,10.47
2018-12-09T03:21:46.067Z,10.51
2018-12-09T03:24:22.515Z,10.56
2018-12-09T03:26:51.020Z,10.62
2018-12-09T03:29:19.538Z,10.70
2018-12-09T03:31:48.300Z,10.66
2018-12-09T03:34:16.744Z,10.61
2018-12-09T03:36:46.207Z,10.46
2018-12-09T03:39:15.213Z,10.22
2018-12-09T03:41:43.749Z,10.04
2018-12-09T03:44:14.481Z,10.07
2018-12-09T03:46:43.123Z,10.05
2018-12-09T03:49:12.001Z,10.05
2018-12-09T03:51:40.707Z,10.11
2018-12-09T03:54:09.453Z,10.13
2018-12-09T03:56:39.098Z,10.00
2018-12-09T03:59:08.119Z,9.98
2018-12-09T04:01:37.873Z,10.01
2018-12-09T04:04:06.936Z,10.07
2018-12-09T04:06:35.586Z,10.06
2018-12-09T04:09:04.684Z,10.05
2018-12-09T04:11:34.396Z,9.93
2018-12-09T04:14:07.627Z,9.99
2018-12-09T04:16:36.714Z,9.93
2018-12-09T04:19:05.568Z,9.95
2018-12-09T04:21:35.816Z,9.93
2018-12-09T04:24:04.806Z,9.91
2018-12-09T04:26:36.024Z,9.81
2018-12-09T04:29:04.530Z,9.81
2018-12-09T04:31:35.734Z,9.76
2018-12-09T04:34:06.879Z,9.87
2018-12-09T04:36:36.616Z,9.78
2018-12-09T04:39:06.891Z,9.88
2018-12-09T04:41:41.660Z,9.90
2018-12-09T04:44:10.932Z,9.92
2018-12-09T04:46:39.631Z,9.95
2018-12-09T04:49:08.379Z,9.86
2018-12-09T04:51:42.263Z,9.86
2018-12-09T04:54:11.558Z,9.76
2018-12-09T04:56:40.433Z,9.77
2018-12-09T04:59:13.568Z,9.96
2018-12-09T05:01:42.407Z,10.00
2018-12-09T05:04:10.966Z,9.85
2018-12-09T05:06:40.047Z,9.80
2018-12-09T05:09:09.161Z,9.92
2018-12-09T05:11:38.907Z,10.00
2018-12-09T05:14:07.314Z,10.07
2018-12-09T05:16:36.642Z,10.09
2018-12-09T05:19:05.355Z,10.10
2018-12-09T05:21:33.980Z,10.19
2018-12-09T05:24:02.784Z,10.27
2018-12-09T05:26:34.901Z,10.17
2018-12-09T05:29:08.286Z,10.18
2018-12-09T05:31:42.815Z,10.22
2018-12-09T05:34:14.504Z,10.25
2018-12-09T05:36:43.523Z,10.27
2018-12-09T05:39:14.464Z,10.26
2018-12-09T05:41:46.867Z,10.23
2018-12-09T05:44:16.744Z,10.21
2018-12-09T05:46:45.971Z,10.28
2018-12-09T05:49:14.972Z,10.33
2018-12-09T05:51:43.513Z,10.29
2018-12-09T05:54:12.386Z,10.35
2018-12-09T05:56:41.544Z,10.14
2018-12-09T05:59:11.569Z,10.13
2018-12-09T06:01:44.364Z,9.80
2018-12-09T06:04:13.035Z,10.00
2018-12-09T06:06:43.419Z,10.08
2018-12-09T06:09:12.607Z,9.99
2018-12-09T06:11:41.917Z,9.97
2018-12-09T06:14:17.780Z,10.08
2018-12-09T06:16:46.648Z,10.03
2018-12-09T06:19:16.628Z,9.95
2018-12-09T06:21:45.437Z,10.02
2018-12-09T06:24:14.151Z,10.07
2018-12-09T06:26:43.676Z,10.15
2018-12-09T06:29:13.414Z,10.13
2018-12-09T06:31:42.529Z,10.09
2018-12-09T06:34:12.131Z,10.03
2018-12-09T06:36:41.718Z,10.08
2018-12-09T06:39:13.568Z,10.04
2018-12-09T06:41:42.541Z,10.02
2018-12-09T06:44:11.031Z,10.02
2018-12-09T06:46:42.246Z,10.17
2018-12-09T06:49:10.629Z,10.24
2018-12-09T06:51:39.777Z,10.26
2018-12-09T06:54:10.631Z,10.36
2018-12-09T06:56:51.725Z,10.36
2018-12-09T06:59:21.682Z,10.37
2018-12-09T07:01:50.591Z,10.40
2018-12-09T07:04:19.191Z,10.43
2018-12-09T07:06:50.094Z,10.49
2018-12-09T07:09:21.127Z,10.47
2018-12-09T07:11:53.487Z,10.55
2018-12-09T07:14:22.692Z,10.62
2018-12-09T07:16:53.598Z,10.66
2018-12-09T07:19:22.757Z,10.75
2018-12-09T07:21:54.399Z,10.75
2018-12-09T07:24:27.628Z,10.62
2018-12-09T07:26:56.222Z,10.74
2018-12-09T07:29:25.275Z,10.70
2018-12-09T07:31:54.617Z,10.72
2018-12-09T07:34:24.941Z,10.73
2018-12-09T07:36:54.555Z,10.88
2018-12-09T07:39:25.207Z,10.86
2018-12-09T07:42:09.542Z,10.92
2018-12-09T07:44:44.285Z,10.97
2018-12-09T07:47:14.662Z,10.89
2018-12-09T07:49:43.441Z,10.89
2018-12-09T07:52:18.433Z,11.00
2018-12-09T07:54:47.343Z,11.00
2018-12-09T07:57:18.765Z,11.12
2018-12-09T07:59:47.672Z,11.03
2018-12-09T08:02:21.572Z,11.04
2018-12-09T08:04:50.255Z,11.04
2018-12-09T08:07:19.582Z,11.05
2018-12-09T08:09:51.124Z,10.93
2018-12-09T08:12:23.470Z,10.95
2018-12-09T08:14:53.661Z,11.12
2018-12-09T08:17:22.657Z,11.10
2018-12-09T08:19:52.623Z,11.28
2018-12-09T08:22:22.944Z,11.34
2018-12-09T08:24:52.029Z,11.26
2018-12-09T08:27:21.381Z,11.24
2018-12-09T08:29:49.945Z,11.26
2018-12-09T08:32:19.458Z,11.21
2018-12-09T08:34:51.332Z,11.28
2018-12-09T08:37:20.350Z,11.29
2018-12-09T08:39:50.303Z,11.35
2018-12-09T08:42:18.647Z,11.36
2018-12-09T08:44:47.825Z,11.53
2018-12-09T08:47:18.085Z,11.51
2018-12-09T08:49:47.633Z,11.58
2018-12-09T08:52:18.663Z,11.68
2018-12-09T08:54:48.689Z,11.66
2018-12-09T08:57:20.381Z,11.64
2018-12-09T08:59:50.714Z,11.70
2018-12-09T09:02:25.447Z,11.57
2018-12-09T09:04:55.161Z,11.58
2018-12-09T09:07:36.422Z,11.53
2018-12-09T09:10:11.188Z,11.48
2018-12-09T09:12:41.476Z,11.61
2018-12-09T09:15:17.358Z,11.76
2018-12-09T09:18:03.142Z,11.65
2018-12-09T09:21:03.456Z,11.69
2018-12-09T09:23:38.307Z,11.77
2018-12-09T09:26:09.595Z,11.75
2018-12-09T09:28:39.041Z,11.54
2018-12-09T09:31:22.556Z,11.52
2018-12-09T09:33:52.103Z,11.61
2018-12-09T09:36:23.262Z,11.65
2018-12-09T09:38:55.764Z,11.55
2018-12-09T09:41:25.531Z,11.46
2018-12-09T09:44:00.995Z,11.59
2018-12-09T09:46:30.816Z,11.65
2018-12-09T09:49:21.440Z,11.67
2018-12-09T09:51:57.872Z,11.64
2018-12-09T09:54:27.006Z,11.64
2018-12-09T09:56:58.782Z,11.54
2018-12-09T09:59:28.274Z,11.40
2018-12-09T10:01:58.611Z,11.32
2018-12-09T10:04:28.439Z,11.29
2018-12-09T10:06:58.165Z,11.23
2018-12-09T10:09:32.162Z,11.19
2018-12-09T10:14:33.891Z,11.23
2018-12-09T10:19:43.819Z,11.23
2018-12-09T10:25:08.005Z,11.19
2018-12-09T10:27:46.266Z,11.13
2018-12-09T10:30:21.813Z,11.15
2018-12-09T10:32:57.151Z,11.27
2018-12-09T10:37:51.969Z,11.17
2018-12-09T10:40:24.824Z,11.31
2018-12-09T10:42:57.478Z,11.32
2018-12-09T10:45:27.520Z,11.32
2018-12-09T10:48:00.280Z,11.26
2018-12-09T10:50:45.517Z,11.25
2018-12-09T10:53:25.824Z,11.20
2018-12-09T10:55:58.571Z,11.16
2018-12-09T10:58:32.000Z,11.42
2018-12-09T11:01:07.161Z,11.52
2018-12-09T11:03:57.108Z,11.45
2018-12-09T11:06:33.633Z,11.45
2018-12-09T11:09:25.290Z,11.41
2018-12-09T11:15:05.004Z,11.63
2018-12-09T11:17:59.284Z,11.77
2018-12-09T11:20:40.898Z,11.75
2018-12-09T11:23:14.068Z,12.62
2018-12-09T11:29:01.174Z,13.18
2018-12-09T11:31:43.378Z,12.51
2018-12-09T11:34:18.479Z,12.36
2018-12-09T11:36:47.867Z,12.42
2018-12-09T11:39:16.625Z,12.35
2018-12-09T11:41:49.892Z,12.21
2018-12-09T11:44:24.525Z,12.19
2018-12-09T11:46:57.806Z,12.06
2018-12-09T11:49:30.855Z,11.76
2018-12-09T11:52:00.147Z,11.79
2018-12-09T11:54:32.140Z,11.41
2018-12-09T11:57:11.502Z,11.02
2018-12-09T11:59:43.815Z,10.75
2018-12-09T12:02:20.061Z,10.57
2018-12-09T12:04:51.094Z,10.42
2018-12-09T12:07:24.532Z,10.48
2018-12-09T12:09:54.099Z,10.51
2018-12-09T12:12:22.997Z,10.35
2018-12-09T12:14:53.625Z,10.39
2018-12-09T12:17:24.265Z,10.36
2018-12-09T12:19:54.918Z,10.32
2018-12-09T12:22:26.756Z,10.22
2018-12-09T12:26:42.087Z,10.13
2018-12-09T12:29:11.729Z,10.19
2018-12-09T12:31:47.648Z,10.27
2018-12-09T12:34:25.902Z,10.21
2018-12-09T12:37:00.854Z,10.11
2018-12-09T12:39:43.735Z,10.05
2018-12-09T12:42:13.799Z,10.05
2018-12-09T12:44:43.555Z,10.07
2018-12-09T12:47:18.836Z,10.18
2018-12-09T12:49:50.938Z,10.30
2018-12-09T12:52:25.925Z,10.27
2018-12-09T12:55:08.038Z,10.35
2018-12-09T12:57:38.551Z,10.37
2018-12-09T13:03:02.683Z,10.52
2018-12-09T13:05:31.291Z,10.56
2018-12-09T13:08:18.699Z,10.65
2018-12-09T13:10:49.244Z,10.60
2018-12-09T13:13:29.977Z,10.68
2018-12-09T13:16:03.766Z,10.89
2018-12-09T13:18:32.721Z,10.91
2018-12-09T13:21:07.710Z,10.98
2018-12-09T13:23:42.354Z,10.96
2018-12-09T13:26:10.701Z,11.07
2018-12-09T13:28:40.502Z,11.12
2018-12-09T13:31:12.370Z,11.27
2018-12-09T13:33:45.035Z,11.42
2018-12-09T13:36:13.741Z,11.54
2018-12-09T13:38:42.432Z,11.43
2018-12-09T13:41:11.767Z,11.41
2018-12-09T13:43:43.830Z,11.40
2018-12-09T13:46:26.089Z,11.34
2018-12-09T13:48:54.621Z,11.35
2018-12-09T13:51:26.825Z,11.44
2018-12-09T13:54:04.668Z,11.47
2018-12-09T13:56:48.791Z,11.55
2018-12-09T14:00:08.178Z,11.41
2018-12-09T14:03:50.435Z,11.33
2018-12-09T14:06:23.444Z,11.37
2018-12-09T14:08:53.127Z,11.35
2018-12-09T14:11:26.254Z,11.45
2018-12-09T14:14:02.854Z,11.52
2018-12-09T14:16:38.418Z,11.54
2018-12-09T14:19:08.016Z,11.30
2018-12-09T14:21:44.769Z,11.30
2018-12-09T14:26:31.747Z,11.23
2018-12-09T14:29:07.491Z,11.28
2018-12-09T14:31:48.141Z,11.32
2018-12-09T14:34:33.320Z,11.38
2018-12-09T14:39:42.359Z,11.43
2018-12-09T14:42:13.144Z,11.44
2018-12-09T14:44:44.315Z,11.51
2018-12-09T14:47:26.159Z,11.47
2018-12-09T14:49:57.819Z,11.51
2018-12-09T14:52:33.239Z,11.47
2018-12-09T14:55:10.582Z,11.45
2018-12-09T14:57:58.890Z,11.40
2018-12-09T15:00:37.842Z,11.27
2018-12-09T15:03:09.783Z,11.26
2018-12-09T15:05:41.701Z,11.27
2018-12-09T15:08:30.567Z,11.31
2018-12-09T15:13:47.976Z,11.18
2018-12-09T15:16:18.879Z,11.10
2018-12-09T15:20:56.527Z,11.06
2018-12-09T15:23:38.525Z,11.05
2018-12-09T15:26:23.365Z,11.16
2018-12-09T15:35:09.543Z,11.05
2018-12-09T15:37:58.116Z,11.07
2018-12-09T15:40:45.562Z,10.98
2018-12-09T15:46:40.233Z,11.01
2018-12-09T15:49:13.151Z,11.10
2018-12-09T15:51:53.257Z,11.12
2018-12-09T15:54:22.821Z,11.15
2018-12-09T15:56:55.234Z,11.14
2018-12-09T16:01:21.659Z,11.02
2018-12-09T16:03:54.079Z,10.98
2018-12-09T16:06:26.957Z,11.03
2018-12-09T16:09:02.532Z,11.10
2018-12-09T16:11:34.839Z,10.95
2018-12-09T16:14:11.531Z,10.86
2018-12-09T16:16:52.926Z,10.56
2018-12-09T16:19:28.137Z,10.47
2018-12-09T16:22:43.569Z,10.37
2018-12-09T16:25:37.562Z,10.40
2018-12-09T16:28:09.756Z,10.36
2018-12-09T16:30:40.394Z,10.34
2018-12-09T16:33:09.847Z,10.39
2018-12-09T16:35:39.355Z,10.42
2018-12-09T16:38:10.969Z,10.42
2018-12-09T16:40:40.267Z,10.45
2018-12-09T16:43:11.720Z,10.50
2018-12-09T16:45:43.660Z,10.49
2018-12-09T16:48:15.751Z,10.42
2018-12-09T16:50:44.432Z,10.44
2018-12-09T16:53:16.830Z,10.56
2018-12-09T16:55:47.946Z,10.53
2018-12-09T16:58:23.947Z,10.51
2018-12-09T17:00:54.726Z,10.59
2018-12-09T17:03:32.064Z,10.61
2018-12-09T17:06:10.573Z,10.65
2018-12-09T17:08:49.707Z,10.63
2018-12-09T17:11:20.640Z,10.59
2018-12-09T17:13:50.657Z,10.57
2018-12-09T17:16:23.752Z,10.56
2018-12-09T17:18:57.533Z,10.61
2018-12-09T17:21:30.302Z,10.69
2018-12-09T17:24:01.015Z,10.71
2018-12-09T17:26:37.949Z,10.65
2018-12-09T17:29:08.236Z,10.66
2018-12-09T17:31:43.945Z,10.65
2018-12-09T17:34:14.853Z,10.41
2018-12-09T17:37:09.509Z,10.44
2018-12-09T17:42:24.866Z,10.46
2018-12-09T17:44:58.671Z,10.51
2018-12-09T17:47:30.105Z,10.51
2018-12-09T17:50:09.722Z,10.38
2018-12-09T17:52:46.299Z,10.40
2018-12-09T17:55:17.762Z,10.47
2018-12-09T17:57:49.777Z,10.40
2018-12-09T18:00:30.614Z,10.51
2018-12-09T18:03:01.567Z,10.46
2018-12-09T18:05:32.673Z,10.26
2018-12-09T18:09:02.034Z,10.52
2018-12-09T18:11:51.507Z,10.50
2018-12-09T18:14:32.309Z,10.50
2018-12-09T18:17:09.697Z,10.53
2018-12-09T18:19:41.809Z,10.57
2018-12-09T18:22:17.132Z,10.59
2018-12-09T18:24:51.553Z,10.61
2018-12-09T18:27:26.447Z,10.54
2018-12-09T18:29:59.489Z,10.46
2018-12-09T18:32:30.571Z,10.41
2018-12-09T18:35:06.009Z,10.44
2018-12-09T18:37:46.436Z,10.35
2018-12-09T18:40:17.158Z,10.38
2018-12-09T18:42:50.381Z,10.43
2018-12-09T18:45:40.838Z,10.31
2018-12-09T18:48:16.235Z,10.26
2018-12-09T18:51:01.820Z,10.25
2018-12-09T18:53:36.953Z,10.22
2018-12-09T18:56:12.780Z,10.23
2018-12-09T18:58:42.180Z,10.11
2018-12-09T19:01:19.987Z,10.04
2018-12-09T19:03:52.998Z,10.04
2018-12-09T19:06:25.173Z,10.08
2018-12-09T19:08:56.374Z,10.07
2018-12-09T19:11:28.203Z,10.06
2018-12-09T19:14:02.256Z,10.15
2018-12-09T19:16:48.102Z,10.16
2018-12-09T19:19:18.862Z,10.13
2018-12-09T19:21:50.729Z,10.11
2018-12-09T19:24:20.137Z,10.13
2018-12-09T19:26:52.716Z,10.15
2018-12-09T19:29:29.246Z,10.09
2018-12-09T19:32:01.638Z,10.07
2018-12-09T19:40:38.091Z,9.99
2018-12-09T19:43:13.351Z,9.97
2018-12-09T19:45:57.330Z,9.98
2018-12-09T19:52:02.835Z,10.00
2018-12-09T19:54:40.956Z,9.97
2018-12-09T19:57:15.619Z,9.99
2018-12-09T20:00:00.487Z,9.99
2018-12-09T20:02:30.589Z,10.01
2018-12-09T20:05:05.465Z,10.06
2018-12-09T20:07:35.855Z,10.04
2018-12-09T20:10:09.237Z,10.00
2018-12-09T20:12:39.654Z,9.97
2018-12-09T20:15:18.899Z,9.89
2018-12-09T20:17:51.357Z,9.84
2018-12-09T20:23:03.456Z,9.81
2018-12-09T20:25:37.429Z,9.82
2018-12-09T20:30:49.235Z,9.79
2018-12-09T20:33:20.170Z,9.79
2018-12-09T20:35:54.960Z,9.83
2018-12-09T20:38:29.196Z,9.92
2018-12-09T20:40:58.113Z,9.98
2018-12-09T20:43:32.380Z,10.03
2018-12-09T20:46:29.272Z,9.98
2018-12-09T20:49:02.117Z,9.90
2018-12-09T20:51:47.211Z,9.84
2018-12-09T20:54:23.473Z,9.68
2018-12-09T20:57:45.644Z,9.69
2018-12-09T21:00:20.384Z,9.72
2018-12-09T21:02:57.607Z,9.81
2018-12-09T21:05:30.326Z,9.73
2018-12-09T21:08:08.234Z,9.79
2018-12-09T21:10:43.525Z,9.82
2018-12-09T21:13:15.727Z,9.85
2018-12-09T21:15:50.550Z,9.81
2018-12-09T21:21:30.766Z,9.66
2018-12-09T21:24:04.905Z,9.74
2018-12-09T21:26:34.365Z,9.72
2018-12-09T21:29:11.362Z,9.65
2018-12-09T21:31:46.529Z,9.69
2018-12-09T21:34:18.810Z,9.74
2018-12-09T21:36:50.061Z,9.72
2018-12-09T21:39:22.106Z,9.70
2018-12-09T21:41:50.784Z,9.62
2018-12-09T21:44:19.216Z,9.59
2018-12-09T21:47:00.201Z,9.57
2018-12-09T21:49:32.086Z,9.56
2018-12-09T21:52:09.350Z,9.56
2018-12-09T21:54:45.927Z,9.52
2018-12-09T21:57:16.929Z,9.41
2018-12-09T21:59:56.332Z,9.37
2018-12-09T22:02:31.457Z,9.34
2018-12-09T22:05:06.017Z,9.35
2018-12-09T22:07:35.240Z,9.32
2018-12-09T22:10:10.180Z,9.28
2018-12-09T22:12:53.169Z,9.22
2018-12-09T22:15:24.630Z,9.16
2018-12-09T22:17:55.050Z,9.17
2018-12-09T22:20:26.325Z,9.20
2018-12-09T22:25:52.778Z,9.27
2018-12-09T22:31:07.415Z,9.34
2018-12-09T22:33:40.129Z,9.35
2018-12-09T22:36:10.939Z,9.31
2018-12-09T22:38:42.984Z,9.31
2018-12-09T22:41:13.267Z,9.07
2018-12-09T22:43:54.389Z,9.28
2018-12-09T22:46:23.654Z,9.26
2018-12-09T22:48:53.399Z,9.23
2018-12-09T22:51:24.004Z,9.27
2018-12-09T22:54:03.339Z,9.30
2018-12-09T22:56:46.368Z,9.24
2018-12-09T22:59:20.463Z,9.33
2018-12-09T23:01:57.437Z,9.34
2018-12-09T23:04:29.095Z,9.31
2018-12-09T23:07:02.772Z,9.27
2018-12-09T23:09:46.226Z,9.34
2018-12-09T23:15:15.658Z,9.40
2018-12-09T23:17:59.609Z,9.34
2018-12-09T23:20:34.825Z,9.40
2018-12-09T23:23:11.724Z,9.37
2018-12-09T23:25:41.978Z,9.45
2018-12-09T23:28:11.033Z,9.35
2018-12-09T23:30:40.949Z,9.30
2018-12-09T23:33:11.254Z,9.29
2018-12-09T23:35:44.037Z,9.23
2018-12-09T23:40:59.155Z,9.33
2018-12-09T23:43:29.056Z,9.28
2018-12-09T23:46:20.299Z,9.22
2018-12-09T23:48:50.572Z,9.37
2018-12-09T23:51:27.645Z,9.42
2018-12-09T23:54:02.118Z,9.59
2018-12-09T23:56:32.009Z,9.50
2018-12-09T23:59:09.889Z,9.53
